createdAt,value
2019-01-14T00:00:27.909Z,80.08
2019-01-14T00:01:27.898Z,80.18
2019-01-14T00:02:27.888Z,78.22
2019-01-14T00:03:27.877Z,78.22
2019-01-14T00:04:27.867Z,78.11
2019-01-14T00:05:27.855Z,79.36
2019-01-14T00:06:27.845Z,78.63
2019-01-14T00:07:27.846Z,78.42
2019-01-14T00:08:27.827Z,78.53
2019-01-14T00:09:31.070Z,78.84
2019-01-14T00:10:27.802Z,78.32
2019-01-14T00:11:27.791Z,79.25
2019-01-14T00:12:27.782Z,79.60
2019-01-14T00:13:27.770Z,80.43
2019-01-14T00:14:27.760Z,80.22
2019-01-14T00:15:27.749Z,80.32
2019-01-14T00:16:27.738Z,80.84
2019-01-14T00:17:27.727Z,81.25
2019-01-14T00:18:27.717Z,81.98
2019-01-14T00:19:27.707Z,81.77
2019-01-14T00:20:27.697Z,81.81
2019-01-14T00:21:27.687Z,81.56
2019-01-14T00:22:27.675Z,81.49
2019-01-14T00:23:27.664Z,81.60
2019-01-14T00:24:27.654Z,80.05
2019-01-14T00:25:27.643Z,78.60
2019-01-14T00:26:27.631Z,78.08
2019-01-14T00:27:27.622Z,79.12
2019-01-14T00:28:27.613Z,80.05
2019-01-14T00:29:27.600Z,80.15
2019-01-14T00:30:27.588Z,78.39
2019-01-14T00:31:27.578Z,78.19
2019-01-14T00:32:27.570Z,78.60
2019-01-14T00:33:27.557Z,78.64
2019-01-14T00:34:27.555Z,78.53
2019-01-14T00:35:27.548Z,77.81
2019-01-14T00:36:27.526Z,78.12
2019-01-14T00:37:27.515Z,78.33
2019-01-14T00:38:27.503Z,79.09
2019-01-14T00:39:27.492Z,79.36
2019-01-14T00:40:27.488Z,80.22
2019-01-14T00:41:27.474Z,81.16
2019-01-14T00:42:27.461Z,80.74
2019-01-14T00:43:27.450Z,80.64
2019-01-14T00:44:27.439Z,81.20
2019-01-14T00:45:27.430Z,81.40
2019-01-14T00:46:27.421Z,80.16
2019-01-14T00:47:27.410Z,79.44
2019-01-14T00:48:27.397Z,78.67
2019-01-14T00:49:27.386Z,79.74
2019-01-14T00:50:27.375Z,80.16
2019-01-14T00:51:27.364Z,80.57
2019-01-14T00:52:27.354Z,79.74
2019-01-14T00:53:27.345Z,80.47
2019-01-14T00:54:27.335Z,80.47
2019-01-14T00:55:27.324Z,79.44
2019-01-14T00:56:27.312Z,79.64
2019-01-14T00:57:27.301Z,79.44
2019-01-14T00:58:27.291Z,79.44
2019-01-14T00:59:27.280Z,79.85
2019-01-14T01:00:27.269Z,78.71
2019-01-14T01:01:27.257Z,78.61
2019-01-14T01:02:27.247Z,77.98
2019-01-14T01:03:27.237Z,77.57
2019-01-14T01:04:27.230Z,77.67
2019-01-14T01:05:27.218Z,77.78
2019-01-14T01:06:27.205Z,77.57
2019-01-14T01:07:27.197Z,77.01
2019-01-14T01:08:27.185Z,77.57
2019-01-14T01:09:27.175Z,77.33
2019-01-14T01:10:27.164Z,77.12
2019-01-14T01:11:27.153Z,77.43
2019-01-14T01:12:27.140Z,77.53
2019-01-14T01:13:27.134Z,77.12
2019-01-14T01:14:27.121Z,76.19
2019-01-14T01:15:27.110Z,76.71
2019-01-14T01:16:27.098Z,76.50
2019-01-14T01:17:27.088Z,75.78
2019-01-14T01:18:27.077Z,75.36
2019-01-14T01:19:27.066Z,76.81
2019-01-14T01:20:27.055Z,76.91
2019-01-14T01:21:27.047Z,77.33
2019-01-14T01:22:27.035Z,76.71
2019-01-14T01:23:27.025Z,77.33
2019-01-14T01:24:27.014Z,76.50
2019-01-14T01:25:27.002Z,77.53
2019-01-14T01:26:26.992Z,77.47
2019-01-14T01:27:26.983Z,77.74
2019-01-14T01:28:26.969Z,78.50
2019-01-14T01:29:26.961Z,78.71
2019-01-14T01:30:26.949Z,78.92
2019-01-14T01:31:26.939Z,79.44
2019-01-14T01:32:26.927Z,78.71
2019-01-14T01:33:26.918Z,79.13
2019-01-14T01:34:26.910Z,79.44
2019-01-14T01:35:26.895Z,79.23
2019-01-14T01:36:31.833Z,79.78
2019-01-14T01:37:27.878Z,79.78
2019-01-14T01:38:26.866Z,80.19
2019-01-14T01:39:26.853Z,79.74
2019-01-14T01:40:26.842Z,79.88
2019-01-14T01:41:26.832Z,78.61
2019-01-14T01:42:26.826Z,79.64
2019-01-14T01:43:26.810Z,78.81
2019-01-14T01:44:26.800Z,79.23
2019-01-14T01:45:26.789Z,79.74
2019-01-14T01:46:26.780Z,79.95
2019-01-14T01:47:26.768Z,80.36
2019-01-14T01:48:26.759Z,79.78
2019-01-14T01:49:26.748Z,80.51
2019-01-14T01:50:26.741Z,80.51
2019-01-14T01:51:26.731Z,80.51
2019-01-14T01:52:26.714Z,79.88
2019-01-14T01:53:26.703Z,80.30
2019-01-14T01:54:26.693Z,80.92
2019-01-14T01:55:26.682Z,81.54
2019-01-14T01:56:26.674Z,81.23
2019-01-14T01:57:26.662Z,81.65
2019-01-14T01:58:26.660Z,81.44
2019-01-14T01:59:26.640Z,82.17
2019-01-14T02:00:26.631Z,82.48
2019-01-14T02:01:26.620Z,82.62
2019-01-14T02:02:26.609Z,82.72
2019-01-14T02:03:26.601Z,83.14
2019-01-14T02:04:26.589Z,82.93
2019-01-14T02:05:26.575Z,83.65
2019-01-14T02:06:26.566Z,82.51
2019-01-14T02:07:26.556Z,82.82
2019-01-14T02:08:26.547Z,82.62
2019-01-14T02:09:26.535Z,82.62
2019-01-14T02:10:26.526Z,81.89
2019-01-14T02:11:26.511Z,81.99
2019-01-14T02:12:26.501Z,81.68
2019-01-14T02:13:26.491Z,81.89
2019-01-14T02:14:26.482Z,81.37
2019-01-14T02:15:26.471Z,81.68
2019-01-14T02:16:26.459Z,81.37
2019-01-14T02:17:26.448Z,80.61
2019-01-14T02:18:26.437Z,80.30
2019-01-14T02:19:26.426Z,81.02
2019-01-14T02:20:26.417Z,81.34
2019-01-14T02:21:26.404Z,80.54
2019-01-14T02:22:26.396Z,80.54
2019-01-14T02:23:26.385Z,80.19
2019-01-14T02:24:26.374Z,79.88
2019-01-14T02:25:26.364Z,79.88
2019-01-14T02:26:26.355Z,80.65
2019-01-14T02:27:26.341Z,80.19
2019-01-14T02:28:26.331Z,79.78
2019-01-14T02:29:26.322Z,79.88
2019-01-14T02:30:26.312Z,79.88
2019-01-14T02:31:26.304Z,79.51
2019-01-14T02:32:26.293Z,79.51
2019-01-14T02:33:26.276Z,79.37
2019-01-14T02:34:26.266Z,79.58
2019-01-14T02:35:26.258Z,80.13
2019-01-14T02:36:26.245Z,79.88
2019-01-14T02:37:26.236Z,79.71
2019-01-14T02:38:26.228Z,78.37
2019-01-14T02:39:26.212Z,78.47
2019-01-14T02:40:26.205Z,77.95
2019-01-14T02:41:26.192Z,77.95
2019-01-14T02:42:26.181Z,77.64
2019-01-14T02:43:26.170Z,77.61
2019-01-14T02:44:26.160Z,77.44
2019-01-14T02:45:26.149Z,77.33
2019-01-14T02:46:26.139Z,77.23
2019-01-14T02:47:26.131Z,77.44
2019-01-14T02:48:26.117Z,77.12
2019-01-14T02:49:26.105Z,77.50
2019-01-14T02:50:26.095Z,77.33
2019-01-14T02:51:26.094Z,77.33
2019-01-14T02:52:26.073Z,77.64
2019-01-14T02:53:26.065Z,77.33
2019-01-14T02:54:26.058Z,77.12
2019-01-14T02:55:26.043Z,77.23
2019-01-14T02:56:26.031Z,77.54
2019-01-14T02:57:26.022Z,77.40
2019-01-14T02:58:27.868Z,77.19
2019-01-14T02:59:26.004Z,77.09
2019-01-14T03:00:25.991Z,76.92
2019-01-14T03:01:25.979Z,77.23
2019-01-14T03:02:25.968Z,76.50
2019-01-14T03:03:25.957Z,77.44
2019-01-14T03:04:25.945Z,76.92
2019-01-14T03:05:25.934Z,76.50
2019-01-14T03:06:25.930Z,75.98
2019-01-14T03:07:25.918Z,75.32
2019-01-14T03:08:25.905Z,75.43
2019-01-14T03:09:25.893Z,75.57
2019-01-14T03:10:25.882Z,75.46
2019-01-14T03:11:25.871Z,75.46
2019-01-14T03:12:25.861Z,75.63
2019-01-14T03:13:25.853Z,74.91
2019-01-14T03:14:25.838Z,75.84
2019-01-14T03:15:25.829Z,75.67
2019-01-14T03:16:25.817Z,75.57
2019-01-14T03:17:25.807Z,75.78
2019-01-14T03:18:25.807Z,75.74
2019-01-14T03:19:25.789Z,75.67
2019-01-14T03:20:25.775Z,75.53
2019-01-14T03:21:25.766Z,74.19
2019-01-14T03:22:25.754Z,74.63
2019-01-14T03:23:25.742Z,74.50
2019-01-14T03:24:25.734Z,74.84
2019-01-14T03:25:25.719Z,75.05
2019-01-14T03:26:25.710Z,74.95
2019-01-14T03:27:25.701Z,74.95
2019-01-14T03:28:25.690Z,75.88
2019-01-14T03:29:25.679Z,75.36
2019-01-14T03:30:25.669Z,75.26
2019-01-14T03:31:25.659Z,74.74
2019-01-14T03:32:25.654Z,74.11
2019-01-14T03:33:25.636Z,74.95
2019-01-14T03:34:25.625Z,75.15
2019-01-14T03:35:25.617Z,75.57
2019-01-14T03:36:25.602Z,74.84
2019-01-14T03:37:25.593Z,74.74
2019-01-14T03:38:25.585Z,75.26
2019-01-14T03:39:25.573Z,75.26
2019-01-14T03:40:25.561Z,74.63
2019-01-14T03:41:25.555Z,74.46
2019-01-14T03:42:25.539Z,74.84
2019-01-14T03:43:25.530Z,74.74
2019-01-14T03:44:25.518Z,74.32
2019-01-14T03:45:25.507Z,75.05
2019-01-14T03:46:25.496Z,74.53
2019-01-14T03:47:25.486Z,74.01
2019-01-14T03:48:25.476Z,74.22
2019-01-14T03:49:25.466Z,73.60
2019-01-14T03:50:25.455Z,74.53
2019-01-14T03:51:25.443Z,74.05
2019-01-14T03:52:25.437Z,73.60
2019-01-14T03:53:25.422Z,73.49
2019-01-14T03:54:25.414Z,73.53
2019-01-14T03:55:25.403Z,73.63
2019-01-14T03:56:25.390Z,74.15
2019-01-14T03:57:25.379Z,74.57
2019-01-14T03:58:25.818Z,74.57
2019-01-14T03:59:25.363Z,74.57
2019-01-14T04:00:25.350Z,74.15
2019-01-14T04:01:25.336Z,74.67
2019-01-14T04:02:25.326Z,74.36
2019-01-14T04:03:25.315Z,74.57
2019-01-14T04:04:25.302Z,75.09
2019-01-14T04:05:25.294Z,74.77
2019-01-14T04:06:25.285Z,74.77
2019-01-14T04:07:25.275Z,74.98
2019-01-14T04:08:25.262Z,75.40
2019-01-14T04:09:25.249Z,74.81
2019-01-14T04:10:25.241Z,75.02
2019-01-14T04:11:25.230Z,74.91
2019-01-14T04:12:25.227Z,75.12
2019-01-14T04:13:25.208Z,74.19
2019-01-14T04:14:25.198Z,74.71
2019-01-14T04:15:25.198Z,74.71
2019-01-14T04:16:25.178Z,74.50
2019-01-14T04:17:25.166Z,74.91
2019-01-14T04:18:25.157Z,74.60
2019-01-14T04:19:25.147Z,74.50
2019-01-14T04:20:25.133Z,74.08
2019-01-14T04:21:25.122Z,74.08
2019-01-14T04:22:25.112Z,73.98
2019-01-14T04:23:25.102Z,72.74
2019-01-14T04:24:25.094Z,73.67
2019-01-14T04:25:25.078Z,73.77
2019-01-14T04:26:25.069Z,73.15
2019-01-14T04:27:25.059Z,72.84
2019-01-14T04:28:25.046Z,72.66
2019-01-14T04:29:25.038Z,73.25
2019-01-14T04:30:25.027Z,73.18
2019-01-14T04:31:25.018Z,73.18
2019-01-14T04:32:25.006Z,72.77
2019-01-14T04:33:24.996Z,71.83
2019-01-14T04:34:24.988Z,71.28
2019-01-14T04:35:24.974Z,71.42
2019-01-14T04:36:24.964Z,71.24
2019-01-14T04:37:24.952Z,71.21
2019-01-14T04:38:24.941Z,70.59
2019-01-14T04:39:24.932Z,71.31
2019-01-14T04:40:24.918Z,70.72
2019-01-14T04:41:24.917Z,71.24
2019-01-14T04:42:24.899Z,71.14
2019-01-14T04:43:24.890Z,70.41
2019-01-14T04:44:24.877Z,71.76
2019-01-14T04:45:24.866Z,71.07
2019-01-14T04:46:24.858Z,70.41
2019-01-14T04:47:24.847Z,70.13
2019-01-14T04:48:24.834Z,69.92
2019-01-14T04:49:24.849Z,69.09
2019-01-14T04:50:24.814Z,68.99
2019-01-14T04:51:24.808Z,67.95
2019-01-14T04:52:24.793Z,67.43
2019-01-14T04:53:24.789Z,68.71
2019-01-14T04:54:24.771Z,67.85
2019-01-14T04:55:24.762Z,67.67
2019-01-14T04:56:24.750Z,66.94
2019-01-14T04:57:24.743Z,67.88
2019-01-14T04:58:24.729Z,68.08
2019-01-14T04:59:24.725Z,66.74
2019-01-14T05:00:24.710Z,67.12
2019-01-14T05:01:24.700Z,67.67
2019-01-14T05:02:24.686Z,67.25
2019-01-14T05:03:24.681Z,66.45
2019-01-14T05:04:24.666Z,66.87
2019-01-14T05:05:24.663Z,67.67
2019-01-14T05:06:24.647Z,67.39
2019-01-14T05:07:29.526Z,66.35
2019-01-14T05:08:25.620Z,66.63
2019-01-14T05:09:24.612Z,67.18
2019-01-14T05:10:24.602Z,68.01
2019-01-14T05:11:24.592Z,66.77
2019-01-14T05:12:24.584Z,66.14
2019-01-14T05:13:24.570Z,66.14
2019-01-14T05:14:24.562Z,66.24
2019-01-14T05:15:24.549Z,66.14
2019-01-14T05:16:24.539Z,66.14
2019-01-14T05:17:24.529Z,66.56
2019-01-14T05:18:24.517Z,66.87
2019-01-14T05:19:24.511Z,66.97
2019-01-14T05:20:24.498Z,66.66
2019-01-14T05:21:24.486Z,66.14
2019-01-14T05:22:24.477Z,66.77
2019-01-14T05:23:24.464Z,66.14
2019-01-14T05:24:24.456Z,66.66
2019-01-14T05:25:24.448Z,67.08
2019-01-14T05:26:24.433Z,67.32
2019-01-14T05:27:24.422Z,66.56
2019-01-14T05:28:24.411Z,66.14
2019-01-14T05:29:24.399Z,66.87
2019-01-14T05:30:24.389Z,65.52
2019-01-14T05:31:24.379Z,65.72
2019-01-14T05:32:24.368Z,66.45
2019-01-14T05:33:24.363Z,66.87
2019-01-14T05:34:24.351Z,66.77
2019-01-14T05:35:24.341Z,67.29
2019-01-14T05:36:24.326Z,67.29
2019-01-14T05:37:24.316Z,66.42
2019-01-14T05:38:24.306Z,67.67
2019-01-14T05:39:24.297Z,67.49
2019-01-14T05:40:24.291Z,67.18
2019-01-14T05:41:24.274Z,66.77
2019-01-14T05:42:24.263Z,67.57
2019-01-14T05:43:24.258Z,67.25
2019-01-14T05:44:24.245Z,67.29
2019-01-14T05:45:24.232Z,66.35
2019-01-14T05:46:24.221Z,67.08
2019-01-14T05:47:24.213Z,66.63
2019-01-14T05:48:24.201Z,66.42
2019-01-14T05:49:24.190Z,67.18
2019-01-14T05:50:24.184Z,66.31
2019-01-14T05:51:24.169Z,66.77
2019-01-14T05:52:24.158Z,66.24
2019-01-14T05:53:24.148Z,66.42
2019-01-14T05:54:24.140Z,66.66
2019-01-14T05:55:24.127Z,67.18
2019-01-14T05:56:24.116Z,66.84
2019-01-14T05:57:24.105Z,66.77
2019-01-14T05:58:24.098Z,66.35
2019-01-14T05:59:24.085Z,66.24
2019-01-14T06:00:24.075Z,66.03
2019-01-14T06:01:24.064Z,65.17
2019-01-14T06:02:24.051Z,65.48
2019-01-14T06:03:24.043Z,64.11
2019-01-14T06:04:24.034Z,65.07
2019-01-14T06:05:24.022Z,65.04
2019-01-14T06:06:24.009Z,65.59
2019-01-14T06:07:24.000Z,66.00
2019-01-14T06:08:24.005Z,65.59
2019-01-14T06:09:23.982Z,66.00
2019-01-14T06:10:23.969Z,65.62
2019-01-14T06:11:23.961Z,66.21
2019-01-14T06:12:23.954Z,66.53
2019-01-14T06:13:23.943Z,65.69
2019-01-14T06:14:23.941Z,66.11
2019-01-14T06:15:23.919Z,66.77
2019-01-14T06:16:23.914Z,66.63
2019-01-14T06:17:23.898Z,66.45
2019-01-14T06:18:23.886Z,66.14
2019-01-14T06:19:23.873Z,66.63
2019-01-14T06:20:23.861Z,66.35
2019-01-14T06:21:23.885Z,66.11
2019-01-14T06:22:23.842Z,66.66
2019-01-14T06:23:23.832Z,66.35
2019-01-14T06:24:23.906Z,66.77
2019-01-14T06:25:23.815Z,66.14
2019-01-14T06:26:23.801Z,66.24
2019-01-14T06:27:23.789Z,66.87
2019-01-14T06:28:23.814Z,66.45
2019-01-14T06:29:23.772Z,66.59
2019-01-14T06:30:23.758Z,67.32
2019-01-14T06:31:23.750Z,67.42
2019-01-14T06:32:23.736Z,67.60
2019-01-14T06:33:23.768Z,67.80
2019-01-14T06:34:23.717Z,68.12
2019-01-14T06:35:23.708Z,68.74
2019-01-14T06:36:23.694Z,68.84
2019-01-14T06:37:23.689Z,68.84
2019-01-14T06:38:23.673Z,69.57
2019-01-14T06:39:23.661Z,69.57
2019-01-14T06:40:23.653Z,69.78
2019-01-14T06:41:23.643Z,70.20
2019-01-14T06:42:23.631Z,69.89
2019-01-14T06:43:23.621Z,70.40
2019-01-14T06:44:23.608Z,70.40
2019-01-14T06:45:23.599Z,70.61
2019-01-14T06:46:23.589Z,70.30
2019-01-14T06:47:23.585Z,71.13
2019-01-14T06:48:23.568Z,70.40
2019-01-14T06:49:23.558Z,70.72
2019-01-14T06:50:23.545Z,71.13
2019-01-14T06:51:23.536Z,71.44
2019-01-14T06:52:23.529Z,70.51
2019-01-14T06:53:23.515Z,71.23
2019-01-14T06:54:23.505Z,71.13
2019-01-14T06:55:23.498Z,70.92
2019-01-14T06:56:23.484Z,72.07
2019-01-14T06:57:23.472Z,73.32
2019-01-14T06:58:23.460Z,73.77
2019-01-14T06:59:23.455Z,76.16
2019-01-14T07:00:23.441Z,77.65
2019-01-14T07:01:23.429Z,80.29
2019-01-14T07:02:23.420Z,84.18
2019-01-14T07:03:23.407Z,86.20
2019-01-14T07:04:23.402Z,89.78
2019-01-14T07:05:23.389Z,90.81
2019-01-14T07:06:23.376Z,92.47
2019-01-14T07:07:23.372Z,94.04
2019-01-14T07:08:23.355Z,94.15
2019-01-14T07:09:23.348Z,94.92
2019-01-14T07:10:23.334Z,95.03
2019-01-14T07:11:23.325Z,94.92
2019-01-14T07:12:23.315Z,95.23
2019-01-14T07:13:23.302Z,95.07
2019-01-14T07:14:23.292Z,94.92
2019-01-14T07:15:23.284Z,93.88
2019-01-14T07:16:23.275Z,93.25
2019-01-14T07:17:23.263Z,92.10
2019-01-14T07:18:23.252Z,91.06
2019-01-14T07:19:23.241Z,91.02
2019-01-14T07:20:23.231Z,89.76
2019-01-14T07:21:23.224Z,88.72
2019-01-14T07:22:23.211Z,88.82
2019-01-14T07:23:23.201Z,88.51
2019-01-14T07:24:23.190Z,88.16
2019-01-14T07:25:23.178Z,85.24
2019-01-14T07:26:23.166Z,85.86
2019-01-14T07:27:23.157Z,86.38
2019-01-14T07:28:23.144Z,86.18
2019-01-14T07:29:23.135Z,85.34
2019-01-14T07:30:23.129Z,84.40
2019-01-14T07:31:23.112Z,84.57
2019-01-14T07:32:23.103Z,83.95
2019-01-14T07:33:23.093Z,83.95
2019-01-14T07:34:23.085Z,83.95
2019-01-14T07:35:23.073Z,83.22
2019-01-14T07:36:23.061Z,82.17
2019-01-14T07:37:23.050Z,81.65
2019-01-14T07:38:23.041Z,81.76
2019-01-14T07:39:23.031Z,82.03
2019-01-14T07:40:23.022Z,81.13
2019-01-14T07:41:23.007Z,80.99
2019-01-14T07:42:22.997Z,79.74
2019-01-14T07:43:22.987Z,79.32
2019-01-14T07:44:22.978Z,78.28
2019-01-14T07:45:22.969Z,78.59
2019-01-14T07:46:22.955Z,76.30
2019-01-14T07:47:22.946Z,76.06
2019-01-14T07:48:22.935Z,75.32
2019-01-14T07:49:22.922Z,74.80
2019-01-14T07:50:22.914Z,74.29
2019-01-14T07:51:22.902Z,72.09
2019-01-14T07:52:22.891Z,71.78
2019-01-14T07:53:22.884Z,70.32
2019-01-14T07:54:22.871Z,69.70
2019-01-14T07:55:22.862Z,69.91
2019-01-14T07:56:22.848Z,67.58
2019-01-14T07:57:22.839Z,66.65
2019-01-14T07:58:22.836Z,66.02
2019-01-14T07:59:22.819Z,66.33
2019-01-14T08:00:22.809Z,66.54
2019-01-14T08:01:22.797Z,64.77
2019-01-14T08:02:22.786Z,65.30
2019-01-14T08:03:22.775Z,64.67
2019-01-14T08:04:22.767Z,64.53
2019-01-14T08:05:22.754Z,63.84
2019-01-14T08:06:22.745Z,63.60
2019-01-14T08:07:22.734Z,63.00
2019-01-14T08:08:22.723Z,63.39
2019-01-14T08:09:22.713Z,63.81
2019-01-14T08:10:22.702Z,64.43
2019-01-14T08:11:22.693Z,63.39
2019-01-14T08:12:22.682Z,65.26
2019-01-14T08:13:22.671Z,64.53
2019-01-14T08:14:22.661Z,64.53
2019-01-14T08:15:22.649Z,65.06
2019-01-14T08:16:22.643Z,65.58
2019-01-14T08:17:22.633Z,64.85
2019-01-14T08:18:22.619Z,65.99
2019-01-14T08:19:23.632Z,64.64
2019-01-14T08:20:22.599Z,66.20
2019-01-14T08:21:22.588Z,66.72
2019-01-14T08:22:22.577Z,67.21
2019-01-14T08:23:22.572Z,67.97
2019-01-14T08:24:22.554Z,67.97
2019-01-14T08:25:22.546Z,67.11
2019-01-14T08:26:22.535Z,67.35
2019-01-14T08:27:22.523Z,66.38
2019-01-14T08:28:22.513Z,66.59
2019-01-14T08:29:22.502Z,67.11
2019-01-14T08:30:22.492Z,66.83
2019-01-14T08:31:22.492Z,66.69
2019-01-14T08:32:22.472Z,66.90
2019-01-14T08:33:22.458Z,66.69
2019-01-14T08:34:22.451Z,67.11
2019-01-14T08:35:22.438Z,66.48
2019-01-14T08:36:22.426Z,67.73
2019-01-14T08:37:22.429Z,67.21
2019-01-14T08:38:22.411Z,67.52
2019-01-14T08:39:22.395Z,67.73
2019-01-14T08:40:22.387Z,67.42
2019-01-14T08:41:22.375Z,67.32
2019-01-14T08:42:22.365Z,67.00
2019-01-14T08:43:22.355Z,66.69
2019-01-14T08:44:22.368Z,66.69
2019-01-14T08:45:22.332Z,66.06
2019-01-14T08:46:22.322Z,66.80
2019-01-14T08:47:22.353Z,65.86
2019-01-14T08:48:22.299Z,65.83
2019-01-14T08:49:22.288Z,66.24
2019-01-14T08:50:22.288Z,65.72
2019-01-14T08:51:22.267Z,64.37
2019-01-14T08:52:22.260Z,65.41
2019-01-14T08:53:22.247Z,63.64
2019-01-14T08:54:22.237Z,63.98
2019-01-14T08:55:22.229Z,64.51
2019-01-14T08:56:22.216Z,64.09
2019-01-14T08:57:22.204Z,63.54
2019-01-14T08:58:22.198Z,61.88
2019-01-14T08:59:22.185Z,62.26
2019-01-14T09:00:22.175Z,62.02
2019-01-14T09:01:22.163Z,61.61
2019-01-14T09:02:22.153Z,60.99
2019-01-14T09:03:22.141Z,61.30
2019-01-14T09:04:24.313Z,61.82
2019-01-14T09:05:22.124Z,61.61
2019-01-14T09:06:22.112Z,61.09
2019-01-14T09:07:22.099Z,61.54
2019-01-14T09:08:28.483Z,61.74
2019-01-14T09:09:23.077Z,61.22
2019-01-14T09:10:22.064Z,61.12
2019-01-14T09:11:22.056Z,61.43
2019-01-14T09:12:22.049Z,59.74
2019-01-14T09:13:22.047Z,60.08
2019-01-14T09:14:22.024Z,60.39
2019-01-14T09:15:22.012Z,60.47
2019-01-14T09:16:22.002Z,59.30
2019-01-14T09:17:21.995Z,58.52
2019-01-14T09:18:21.979Z,58.73
2019-01-14T09:19:21.973Z,57.24
2019-01-14T09:20:21.961Z,56.47
2019-01-14T09:21:21.948Z,56.39
2019-01-14T09:22:21.938Z,55.98
2019-01-14T09:23:21.927Z,56.10
2019-01-14T09:24:21.916Z,56.73
2019-01-14T09:25:21.907Z,57.17
2019-01-14T09:26:21.896Z,57.04
2019-01-14T09:27:21.885Z,57.01
2019-01-14T09:28:21.874Z,56.99
2019-01-14T09:29:21.863Z,57.01
2019-01-14T09:30:21.855Z,58.88
2019-01-14T09:31:21.848Z,58.47
2019-01-14T09:32:21.830Z,59.12
2019-01-14T09:33:21.836Z,57.84
2019-01-14T09:34:21.809Z,57.14
2019-01-14T09:35:21.799Z,58.81
2019-01-14T09:36:21.806Z,59.12
2019-01-14T09:37:21.785Z,59.12
2019-01-14T09:38:21.768Z,59.12
2019-01-14T09:39:21.757Z,58.81
2019-01-14T09:40:21.750Z,57.90
2019-01-14T09:41:21.741Z,58.52
2019-01-14T09:42:21.726Z,58.62
2019-01-14T09:43:21.718Z,59.56
2019-01-14T09:44:21.704Z,58.52
2019-01-14T09:45:21.697Z,59.45
2019-01-14T09:46:21.682Z,58.52
2019-01-14T09:47:21.674Z,59.04
2019-01-14T09:48:21.660Z,58.62
2019-01-14T09:49:21.650Z,59.14
2019-01-14T09:50:21.642Z,58.83
2019-01-14T09:51:21.631Z,59.25
2019-01-14T09:52:21.620Z,57.09
2019-01-14T09:53:21.608Z,57.07
2019-01-14T09:54:21.596Z,56.96
2019-01-14T09:55:21.592Z,58.91
2019-01-14T09:56:21.575Z,58.11
2019-01-14T09:57:21.565Z,57.90
2019-01-14T09:58:21.555Z,57.45
2019-01-14T09:59:21.552Z,56.10
2019-01-14T10:00:21.532Z,55.38
2019-01-14T10:01:21.522Z,54.34
2019-01-14T10:02:21.512Z,54.83
2019-01-14T10:03:21.500Z,55.27
2019-01-14T10:04:21.490Z,54.55
2019-01-14T10:05:21.479Z,55.90
2019-01-14T10:06:21.469Z,56.10
2019-01-14T10:07:21.459Z,56.83
2019-01-14T10:08:21.447Z,56.21
2019-01-14T10:09:21.438Z,55.79
2019-01-14T10:10:21.428Z,55.35
2019-01-14T10:11:21.416Z,55.43
2019-01-14T10:12:21.411Z,54.39
2019-01-14T10:13:21.396Z,54.24
2019-01-14T10:14:21.386Z,53.33
2019-01-14T10:15:21.375Z,52.45
2019-01-14T10:16:21.362Z,51.39
2019-01-14T10:17:21.353Z,51.83
2019-01-14T10:18:21.342Z,52.04
2019-01-14T10:19:21.330Z,52.79
2019-01-14T10:20:21.325Z,54.03
2019-01-14T10:21:21.308Z,54.47
2019-01-14T10:22:21.307Z,53.98
2019-01-14T10:23:21.289Z,54.81
2019-01-14T10:24:21.281Z,55.15
2019-01-14T10:25:21.268Z,54.50
2019-01-14T10:26:21.255Z,55.10
2019-01-14T10:27:21.243Z,53.15
2019-01-14T10:28:21.236Z,51.42
2019-01-14T10:29:21.223Z,50.16
2019-01-14T10:30:21.211Z,50.31
2019-01-14T10:31:21.205Z,52.01
2019-01-14T10:32:21.191Z,54.29
2019-01-14T10:33:21.186Z,52.22
2019-01-14T10:34:21.171Z,52.35
2019-01-14T10:35:21.193Z,53.64
2019-01-14T10:36:21.151Z,52.67
2019-01-14T10:37:22.871Z,50.55
2019-01-14T10:38:21.126Z,48.87
2019-01-14T10:39:21.116Z,49.17
2019-01-14T10:40:21.108Z,51.62
2019-01-14T10:41:21.094Z,53.61
2019-01-14T10:42:21.084Z,53.41
2019-01-14T10:43:21.074Z,54.47
2019-01-14T10:44:21.062Z,51.32
2019-01-14T10:45:21.054Z,49.91
2019-01-14T10:46:21.042Z,47.65
2019-01-14T10:47:21.030Z,45.85
2019-01-14T10:48:21.021Z,44.72
2019-01-14T10:49:21.028Z,43.87
2019-01-14T10:50:20.998Z,44.41
2019-01-14T10:51:20.988Z,44.41
2019-01-14T10:52:20.977Z,44.10
2019-01-14T10:53:20.966Z,43.75
2019-01-14T10:54:20.956Z,43.34
2019-01-14T10:55:20.944Z,46.37
2019-01-14T10:56:20.935Z,48.17
2019-01-14T10:57:21.804Z,48.61
2019-01-14T10:58:20.913Z,48.15
2019-01-14T10:59:20.903Z,48.13
2019-01-14T11:00:20.892Z,47.01
2019-01-14T11:01:20.879Z,45.13
2019-01-14T11:02:20.869Z,44.84
2019-01-14T11:03:20.860Z,48.50
2019-01-14T11:04:20.851Z,52.30
2019-01-14T11:05:20.852Z,51.79
2019-01-14T11:06:20.829Z,48.08
2019-01-14T11:07:20.816Z,47.44
2019-01-14T11:08:20.806Z,46.92
2019-01-14T11:09:20.795Z,48.49
2019-01-14T11:10:20.784Z,46.16
2019-01-14T11:11:20.779Z,46.12
2019-01-14T11:12:20.763Z,48.87
2019-01-14T11:13:20.756Z,49.15
2019-01-14T11:14:20.742Z,50.02
2019-01-14T11:15:20.732Z,52.09
2019-01-14T11:16:20.720Z,50.24
2019-01-14T11:17:20.717Z,47.71
2019-01-14T11:18:20.698Z,48.17
2019-01-14T11:19:20.693Z,48.96
2019-01-14T11:20:20.676Z,50.04
2019-01-14T11:21:20.667Z,51.42
2019-01-14T11:22:20.657Z,52.45
2019-01-14T11:23:20.646Z,52.43
2019-01-14T11:24:20.638Z,50.55
2019-01-14T11:25:20.632Z,50.45
2019-01-14T11:26:20.613Z,49.87
2019-01-14T11:27:20.603Z,50.85
2019-01-14T11:28:20.591Z,51.70
2019-01-14T11:29:20.581Z,52.04
2019-01-14T11:30:20.570Z,51.10
2019-01-14T11:31:20.559Z,52.56
2019-01-14T11:32:20.548Z,51.83
2019-01-14T11:33:20.539Z,50.40
2019-01-14T11:34:20.531Z,51.98
2019-01-14T11:35:20.515Z,51.69
2019-01-14T11:36:20.506Z,52.62
2019-01-14T11:37:20.494Z,52.09
2019-01-14T11:38:20.486Z,52.11
2019-01-14T11:39:20.474Z,52.52
2019-01-14T11:40:20.462Z,52.21
2019-01-14T11:41:20.454Z,51.52
2019-01-14T11:42:20.443Z,51.13
2019-01-14T11:43:20.433Z,52.50
2019-01-14T11:44:20.421Z,52.06
2019-01-14T11:45:20.465Z,51.96
2019-01-14T11:46:20.401Z,52.50
2019-01-14T11:47:20.394Z,53.75
2019-01-14T11:48:20.379Z,52.61
2019-01-14T11:49:20.367Z,50.34
2019-01-14T11:50:20.355Z,50.65
2019-01-14T11:51:20.346Z,50.89
2019-01-14T11:52:20.338Z,51.95
2019-01-14T11:53:20.327Z,52.23
2019-01-14T11:54:20.312Z,51.92
2019-01-14T11:55:20.302Z,51.51
2019-01-14T11:56:20.295Z,52.86
2019-01-14T11:57:20.282Z,53.17
2019-01-14T11:58:20.278Z,52.36
2019-01-14T11:59:20.263Z,50.18
2019-01-14T12:00:20.249Z,51.53
2019-01-14T12:01:20.238Z,51.74
2019-01-14T12:02:20.227Z,51.53
2019-01-14T12:03:20.217Z,51.74
2019-01-14T12:04:20.214Z,51.64
2019-01-14T12:05:20.196Z,50.49
2019-01-14T12:06:20.185Z,50.31
2019-01-14T12:07:20.177Z,50.73
2019-01-14T12:08:21.109Z,50.52
2019-01-14T12:09:20.152Z,49.90
2019-01-14T12:10:20.142Z,50.21
2019-01-14T12:11:20.133Z,51.35
2019-01-14T12:12:20.121Z,50.10
2019-01-14T12:13:20.112Z,50.83
2019-01-14T12:14:20.098Z,50.81
2019-01-14T12:15:20.089Z,50.73
2019-01-14T12:16:20.078Z,51.14
2019-01-14T12:17:20.069Z,51.25
2019-01-14T12:18:20.055Z,50.83
2019-01-14T12:19:20.050Z,50.62
2019-01-14T12:20:20.036Z,50.21
2019-01-14T12:21:20.026Z,50.10
2019-01-14T12:22:20.015Z,50.21
2019-01-14T12:23:20.004Z,50.52
2019-01-14T12:24:19.996Z,50.10
2019-01-14T12:25:20.111Z,50.52
2019-01-14T12:26:19.972Z,50.83
2019-01-14T12:27:19.962Z,50.49
2019-01-14T12:28:19.954Z,50.18
2019-01-14T12:29:19.940Z,50.70
2019-01-14T12:30:19.930Z,51.84
2019-01-14T12:31:19.920Z,50.60
2019-01-14T12:32:19.909Z,51.74
2019-01-14T12:33:19.899Z,51.22
2019-01-14T12:34:19.888Z,51.01
2019-01-14T12:35:19.877Z,50.52
2019-01-14T12:36:19.867Z,51.25
2019-01-14T12:37:19.857Z,51.04
2019-01-14T12:38:19.845Z,50.54
2019-01-14T12:39:19.935Z,51.58
2019-01-14T12:40:19.822Z,51.87
2019-01-14T12:41:19.814Z,52.31
2019-01-14T12:42:19.803Z,50.85
2019-01-14T12:43:20.240Z,51.89
2019-01-14T12:44:19.781Z,51.37
2019-01-14T12:45:19.773Z,51.27
2019-01-14T12:46:19.765Z,51.79
2019-01-14T12:47:19.750Z,52.93
2019-01-14T12:48:19.742Z,52.72
2019-01-14T12:49:19.727Z,52.44
2019-01-14T12:50:19.718Z,51.48
2019-01-14T12:51:19.713Z,50.02
2019-01-14T12:52:19.705Z,52.41